Time;durP1;ratioP1;P1;durP2;ratioP2;P2;SDS_P1;SDS_P2;PMS_P1;PMS_P2;Temp;Humidity;BMP_temperature;BMP_pressure;BME280_temperature;BME280_humidity;BME280_pressure;Samples;Min_cycle;Max_cycle;Signal;HPM_P1;HPM_P2
2021/08/01 00:02:26;;;;;;;12.13;6.75;;;;;;;20.31;63.17;99145.63;5061587;28;20098;-63
2021/08/01 00:05:13;;;;;;;12.38;6.65;;;;;;;20.30;63.52;99143.94;5061554;28;20040;-63
2021/08/01 00:07:59;;;;;;;12.38;6.78;;;;;;;20.31;63.34;99150.03;5059743;28;20039;-64
2021/08/01 00:10:45;;;;;;;11.90;7.35;;;;;;;20.30;63.46;99145.72;5061749;28;20025;-64
2021/08/01 00:13:31;;;;;;;10.85;7.05;;;;;;;20.27;63.29;99146.78;5062044;28;20094;-64
2021/08/01 00:16:17;;;;;;;11.18;6.85;;;;;;;20.20;63.60;99155.22;5053378;28;20036;-64
2021/08/01 00:19:03;;;;;;;14.00;6.90;;;;;;;20.23;63.78;99155.00;5061251;28;20048;-64
2021/08/01 00:21:49;;;;;;;9.15;7.00;;;;;;;20.20;63.98;99155.22;5063485;28;20353;-64
2021/08/01 00:24:35;;;;;;;11.55;7.30;;;;;;;20.17;64.01;99157.09;5065277;28;20349;-64
2021/08/01 00:27:20;;;;;;;13.90;7.53;;;;;;;20.16;64.16;99163.28;5065251;28;20031;-64
2021/08/01 00:30:09;;;;;;;12.25;6.53;;;;;;;19.95;64.48;99135.88;5065682;28;20021;-65
2021/08/01 00:32:55;;;;;;;12.55;6.97;;;;;;;20.04;64.67;99163.31;5064539;28;20329;-65
2021/08/01 00:35:41;;;;;;;10.35;6.85;;;;;;;20.00;65.29;99160.06;5065857;28;20057;-66
2021/08/01 00:38:27;;;;;;;11.43;7.15;;;;;;;19.93;65.10;99158.81;5064982;28;20029;-66
2021/08/01 00:41:13;;;;;;;9.02;6.80;;;;;;;19.93;65.46;99167.53;5064959;28;20104;-66
2021/08/01 00:43:59;;;;;;;13.43;7.38;;;;;;;19.91;65.50;99165.94;5064953;28;20040;-65
2021/08/01 00:46:45;;;;;;;13.60;6.78;;;;;;;19.85;65.49;99155.84;5064995;28;20025;-65
2021/08/01 00:49:32;;;;;;;9.75;6.65;;;;;;;19.87;65.63;99167.13;5060029;28;20029;-65
2021/08/01 00:52:18;;;;;;;12.18;7.32;;;;;;;19.86;66.33;99163.63;5064559;28;20052;-65
2021/08/01 00:55:06;;;;;;;12.60;7.05;;;;;;;19.33;65.87;99094.56;5065346;28;20025;-65
2021/08/01 00:57:52;;;;;;;11.07;6.95;;;;;;;19.79;65.98;99173.72;5064537;28;20092;-65
2021/08/01 01:01:20;;;;;;;11.35;7.10;;;;;;;19.83;66.30;99180.44;5064672;28;20329;-65
2021/08/01 01:04:11;;;;;;;12.80;7.53;;;;;;;19.54;65.95;99126.38;5064616;28;20056;-65
2021/08/01 01:07:08;;;;;;;11.18;6.97;;;;;;;19.80;65.88;99180.66;5064891;28;20088;-65
2021/08/01 01:10:01;;;;;;;11.77;7.35;;;;;;;19.78;66.08;99192.19;5064443;28;20032;-65
2021/08/01 01:12:55;;;;;;;11.82;6.55;;;;;;;19.77;66.40;99180.84;5064192;28;20072;-65
2021/08/01 01:15:50;;;;;;;14.10;7.57;;;;;;;19.71;66.75;99183.91;5064375;28;20289;-64
2021/08/01 01:18:47;;;;;;;14.30;7.40;;;;;;;19.73;67.29;99194.31;5064235;28;20052;-65
2021/08/01 01:21:57;;;;;;;12.90;7.82;;;;;;;19.71;66.82;99189.16;5059522;28;20025;-64
2021/08/01 01:24:45;;;;;;;8.85;6.93;;;;;;;19.66;66.49;99194.69;5064308;28;20044;-64
2021/08/01 01:27:39;;;;;;;13.00;7.55;;;;;;;19.59;67.13;99182.09;5064123;28;20230;-64
2021/08/01 01:30:26;;;;;;;10.48;6.68;;;;;;;19.56;67.02;99200.69;5064308;28;20025;-64
2021/08/01 01:33:17;;;;;;;11.18;7.00;;;;;;;19.24;66.91;99151.13;5064015;28;20028;-64
2021/08/01 01:36:06;;;;;;;11.50;7.38;;;;;;;19.28;67.42;99156.09;5064049;28;20021;-64
2021/08/01 01:38:55;;;;;;;11.27;7.13;;;;;;;19.53;66.96;99220.09;5061175;28;20021;-64
2021/08/01 01:41:44;;;;;;;10.73;7.45;;;;;;;19.53;67.55;99198.25;5064423;28;20088;-64
2021/08/01 01:44:32;;;;;;;9.75;6.95;;;;;;;19.37;67.17;99175.63;5063418;28;20074;-65
2021/08/01 01:47:19;;;;;;;12.82;7.40;;;;;;;19.54;67.12;99199.94;5056501;28;20333;-65
2021/08/01 01:50:05;;;;;;;10.35;7.35;;;;;;;19.56;67.03;99198.88;5063835;28;20025;-64
2021/08/01 01:52:54;;;;;;;12.15;7.05;;;;;;;19.55;67.45;99206.88;5063695;28;20326;-62
2021/08/01 01:55:40;;;;;;;10.20;6.78;;;;;;;19.56;66.95;99195.44;5059935;28;20036;-63
2021/08/01 01:58:28;;;;;;;12.85;7.38;;;;;;;19.54;67.61;99202.56;5063711;28;20031;-64
2021/08/01 02:01:14;;;;;;;13.32;7.25;;;;;;;19.54;67.35;99202.56;5063542;28;20035;-64
2021/08/01 02:03:59;;;;;;;9.48;6.45;;;;;;;19.44;67.42;99203.19;5063433;28;20293;-63
2021/08/01 02:06:45;;;;;;;14.48;7.45;;;;;;;19.55;66.88;99207.69;5063329;28;20026;-64
2021/08/01 02:09:47;;;;;;;12.50;7.53;;;;;;;19.47;67.76;99200.34;5064666;28;20391;-65
2021/08/01 02:12:42;;;;;;;12.32;7.03;;;;;;;19.52;67.27;99213.16;5061290;28;20053;-62
2021/08/01 02:16:01;;;;;;;11.27;7.13;;;;;;;19.52;67.78;99202.66;5063534;28;20029;-63
2021/08/01 02:18:56;;;;;;;10.75;7.10;;;;;;;19.53;67.65;99219.28;5054742;28;20029;-62
2021/08/01 02:21:44;;;;;;;11.02;6.85;;;;;;;19.24;67.55;99156.38;5063421;28;20031;-62
2021/08/01 02:24:31;;;;;;;16.00;7.80;;;;;;;19.52;67.37;99214.97;5056909;28;20040;-62
2021/08/01 02:27:20;;;;;;;11.43;7.38;;;;;;;19.55;67.62;99207.69;5062835;28;20345;-62
2021/08/01 02:30:06;;;;;;;9.07;6.80;;;;;;;19.59;67.76;99208.34;5061642;28;20214;-64
2021/08/01 02:32:52;;;;;;;12.20;6.78;;;;;;;19.59;67.82;99206.56;5062808;28;20033;-63
2021/08/01 02:35:39;;;;;;;10.45;7.35;;;;;;;19.66;68.17;99218.34;5062400;28;20017;-64
2021/08/01 02:38:26;;;;;;;14.85;7.82;;;;;;;19.66;68.23;99210.47;5062286;28;20261;-65
2021/08/01 02:41:21;;;;;;;11.82;7.85;;;;;;;19.47;68.00;99173.25;5062688;28;20033;-64
2021/08/01 02:44:19;;;;;;;12.02;7.75;;;;;;;19.82;68.47;99218.22;5062233;28;20019;-64
2021/08/01 02:47:08;;;;;;;14.48;7.55;;;;;;;19.86;68.02;99215.38;5062461;28;20027;-64
2021/08/01 02:49:55;;;;;;;12.75;7.13;;;;;;;19.91;67.19;99221.13;5062594;28;20281;-64
2021/08/01 02:52:48;;;;;;;9.13;7.00;;;;;;;19.71;67.09;99178.63;5062648;28;20021;-64
2021/08/01 02:55:36;;;;;;;12.68;7.03;;;;;;;20.01;66.63;99227.47;5062632;28;20032;-64
2021/08/01 02:58:24;;;;;;;9.95;7.00;;;;;;;20.08;66.95;99225.25;5062308;28;20033;-64
2021/08/01 03:01:10;;;;;;;9.40;6.88;;;;;;;20.13;66.59;99223.16;5062335;28;20060;-64
2021/08/01 03:03:58;;;;;;;10.88;7.10;;;;;;;20.16;67.47;99218.50;5062354;28;20027;-64
2021/08/01 03:06:44;;;;;;;12.57;6.85;;;;;;;20.22;66.94;99222.50;5062095;28;20108;-64
2021/08/01 03:09:30;;;;;;;10.70;6.93;;;;;;;20.15;67.28;99211.59;5063622;28;20055;-63
2021/08/01 03:12:17;;;;;;;12.20;6.60;;;;;;;20.25;66.38;99217.06;5062271;28;20108;-63
2021/08/01 03:15:03;;;;;;;11.25;6.72;;;;;;;20.37;66.45;99225.03;5062582;28;20055;-63
2021/08/01 03:17:48;;;;;;;8.85;7.10;;;;;;;20.41;66.02;99229.97;5061785;28;20017;-63
2021/08/01 03:20:34;;;;;;;12.25;6.85;;;;;;;20.49;65.95;99224.16;5062655;28;20036;-63
2021/08/01 03:23:20;;;;;;;10.38;6.88;;;;;;;20.51;64.65;99220.50;5058147;28;20029;-62
2021/08/01 03:26:06;;;;;;;13.25;7.45;;;;;;;20.57;63.70;99226.28;5061927;28;20028;-62
2021/08/01 03:28:52;;;;;;;8.98;6.82;;;;;;;20.61;63.55;99227.75;5061604;28;20031;-64
2021/08/01 03:31:38;;;;;;;9.93;6.30;;;;;;;20.69;64.47;99226.28;5062500;28;20048;-64
2021/08/01 03:34:24;;;;;;;10.35;6.53;;;;;;;20.81;63.95;99235.09;5062674;28;20075;-64
2021/08/01 03:37:09;;;;;;;14.70;6.45;;;;;;;20.85;63.85;99231.28;5062251;28;20206;-63
2021/08/01 03:39:55;;;;;;;38.70;28.83;;;;;;;20.86;63.35;99235.63;5061440;28;20029;-64
2021/08/01 03:42:43;;;;;;;14.60;8.65;;;;;;;21.02;63.17;99230.06;5062311;28;20025;-63
2021/08/01 03:45:29;;;;;;;12.10;6.68;;;;;;;21.11;63.43;99233.84;5062147;28;20029;-64
2021/08/01 03:48:15;;;;;;;12.95;6.50;;;;;;;21.14;63.17;99238.03;5061821;28;20025;-64
2021/08/01 03:51:01;;;;;;;12.43;6.90;;;;;;;21.14;62.63;99236.25;5062156;28;20028;-65
2021/08/01 03:53:46;;;;;;;10.18;6.25;;;;;;;21.14;62.67;99236.25;5061678;28;20052;-64
2021/08/01 03:56:40;;;;;;;13.38;7.20;;;;;;;21.08;62.50;99235.84;5060805;28;20071;-65
2021/08/01 03:59:26;;;;;;;14.10;6.95;;;;;;;21.23;62.74;99245.25;5055495;28;20319;-65
2021/08/01 04:02:15;;;;;;;9.20;6.50;;;;;;;21.40;63.19;99245.84;5061445;28;20272;-65
2021/08/01 04:05:01;;;;;;;10.70;7.25;;;;;;;21.40;62.36;99249.28;5061306;28;20075;-66
2021/08/01 04:07:47;;;;;;;7.82;6.13;;;;;;;21.53;62.29;99252.75;5061358;28;20029;-64
2021/08/01 04:10:34;;;;;;;8.73;6.10;;;;;;;21.54;61.77;99250.94;5061398;28;20028;-64
2021/08/01 04:13:20;;;;;;;10.65;6.50;;;;;;;21.59;61.52;99250.59;5061533;28;20033;-66
2021/08/01 04:16:08;;;;;;;12.85;6.22;;;;;;;21.70;61.47;99250.63;5061409;28;20051;-65
2021/08/01 04:18:54;;;;;;;8.10;6.60;;;;;;;21.62;61.62;99250.38;5061066;28;20018;-66
2021/08/01 04:21:42;;;;;;;14.23;6.93;;;;;;;21.70;61.70;99251.47;5061131;28;20100;-66
2021/08/01 04:24:28;;;;;;;12.00;6.35;;;;;;;21.82;61.31;99241.81;5061576;28;20028;-66
2021/08/01 04:27:14;;;;;;;11.90;6.45;;;;;;;21.84;61.18;99250.44;5061369;28;20040;-66
2021/08/01 04:30:00;;;;;;;9.18;6.30;;;;;;;21.97;61.46;99250.34;5061342;28;20212;-66
2021/08/01 04:32:45;;;;;;;8.23;6.10;;;;;;;22.02;61.05;99250.84;5061538;28;20108;-66
2021/08/01 04:35:31;;;;;;;9.13;6.20;;;;;;;22.10;61.49;99249.44;5061330;28;20025;-66
2021/08/01 04:38:18;;;;;;;9.02;6.38;;;;;;;22.04;61.21;99246.28;5061199;28;20274;-65
2021/08/01 04:41:04;;;;;;;13.23;6.55;;;;;;;22.10;61.22;99249.44;5060497;28;20030;-65
2021/08/01 04:43:50;;;;;;;10.95;6.28;;;;;;;22.26;61.37;99251.72;5061226;28;20033;-65
2021/08/01 04:46:37;;;;;;;16.55;6.53;;;;;;;22.30;61.19;99254.00;5061369;28;20092;-66
2021/08/01 04:49:22;;;;;;;10.15;5.97;;;;;;;22.39;60.78;99255.13;5053983;28;20032;-65
2021/08/01 04:52:19;;;;;;;12.77;6.47;;;;;;;21.95;58.85;99203.94;5061180;28;20021;-65
2021/08/01 04:55:05;;;;;;;7.10;5.30;;;;;;;22.52;59.31;99239.19;5060813;28;20075;-64
2021/08/01 04:57:51;;;;;;;12.85;6.50;;;;;;;22.63;58.76;99240.97;5053337;28;20029;-65
2021/08/01 05:00:36;;;;;;;10.15;5.90;;;;;;;22.87;59.06;99238.16;5056872;28;20025;-64
2021/08/01 05:03:22;;;;;;;13.50;5.65;;;;;;;23.03;57.84;99240.41;5054168;28;20322;-65
2021/08/01 05:06:11;;;;;;;10.35;5.93;;;;;;;23.21;58.07;99241.59;5061364;28;20199;-64
2021/08/01 05:08:57;;;;;;;8.25;5.35;;;;;;;23.37;56.84;99235.06;5064373;28;20029;-64
2021/08/01 05:11:43;;;;;;;12.32;6.35;;;;;;;23.38;56.09;99232.28;5064390;28;20048;-65
2021/08/01 05:14:30;;;;;;;9.20;5.47;;;;;;;23.39;56.11;99233.16;5064667;28;20259;-65
2021/08/01 05:17:16;;;;;;;16.08;7.13;;;;;;;23.47;56.45;99233.31;5064940;28;20041;-65
2021/08/01 05:20:03;;;;;;;12.93;6.22;;;;;;;23.67;56.73;99239.63;5065092;28;20037;-64
2021/08/01 05:22:49;;;;;;;13.63;5.78;;;;;;;23.81;56.07;99248.22;5064233;28;20330;-64
2021/08/01 05:25:34;;;;;;;11.98;6.30;;;;;;;24.06;55.06;99245.19;5064220;28;20253;-63
2021/08/01 05:28:20;;;;;;;10.85;5.90;;;;;;;24.54;54.66;99227.88;5056375;28;20088;-64
2021/08/01 05:31:06;;;;;;;14.13;5.72;;;;;;;24.94;54.12;99231.47;5063931;28;20068;-66
2021/08/01 05:33:52;;;;;;;12.73;6.00;;;;;;;24.94;53.18;99228.84;5064183;28;20206;-64
2021/08/01 05:36:38;;;;;;;13.45;6.07;;;;;;;24.84;53.75;99218.25;5064170;28;20021;-66
2021/08/01 05:39:24;;;;;;;12.93;6.07;;;;;;;24.99;51.99;99226.63;5056778;28;21070;-65
2021/08/01 05:42:09;;;;;;;12.65;6.15;;;;;;;24.89;52.18;99225.78;5063721;28;20056;-68
2021/08/01 05:44:55;;;;;;;9.98;5.22;;;;;;;24.81;49.04;99227.28;5063314;28;20021;-67
2021/08/01 05:47:41;;;;;;;12.98;5.85;;;;;;;25.06;51.87;99227.75;5063690;28;20032;-69
2021/08/01 05:50:27;;;;;;;10.15;4.82;;;;;;;25.27;49.80;99227.63;5064932;28;20328;-67
2021/08/01 05:53:13;;;;;;;14.88;5.60;;;;;;;25.06;48.66;99225.09;5063840;28;20028;-67
2021/08/01 05:56:09;;;;;;;7.88;4.60;;;;;;;24.88;48.68;99187.00;5063414;28;20017;-64
2021/08/01 05:58:55;;;;;;;8.02;5.13;;;;;;;25.08;49.90;99243.50;5063184;28;20147;-67
2021/08/01 06:01:41;;;;;;;6.78;4.63;;;;;;;25.08;48.84;99241.72;5063583;28;20021;-65
2021/08/01 06:04:26;;;;;;;8.50;5.03;;;;;;;24.88;48.80;99238.16;5063194;28;20037;-67
2021/08/01 06:07:12;;;;;;;6.28;4.78;;;;;;;24.97;48.85;99237.34;5063135;28;20333;-68
2021/08/01 06:09:58;;;;;;;7.90;4.47;;;;;;;25.01;48.48;99235.25;5064317;28;20025;-67
2021/08/01 06:12:44;;;;;;;12.63;4.80;;;;;;;24.97;49.06;99237.34;5063117;28;20049;-68
2021/08/01 06:15:30;;;;;;;7.20;4.35;;;;;;;25.05;48.18;99244.63;5063753;28;20029;-68
2021/08/01 06:18:16;;;;;;;7.57;4.38;;;;;;;25.16;48.44;99241.00;5062490;28;20032;-67
2021/08/01 06:21:08;;;;;;;9.10;4.40;;;;;;;25.25;48.29;99248.13;5063053;28;20060;-66
2021/08/01 06:23:54;;;;;;;10.40;4.82;;;;;;;25.29;47.84;99257.47;5062678;28;20028;-68
2021/08/01 06:26:42;;;;;;;6.95;4.07;;;;;;;25.41;48.55;99260.03;5063115;28;20111;-69
2021/08/01 06:29:28;;;;;;;8.38;3.88;;;;;;;25.40;48.09;99258.38;5063158;28;20031;-68
2021/08/01 06:32:14;;;;;;;9.07;3.95;;;;;;;25.19;45.99;99263.75;5063307;28;20037;-69
2021/08/01 06:35:00;;;;;;;8.20;3.65;;;;;;;25.19;47.83;99251.34;5063258;28;20314;-70
2021/08/01 06:37:46;;;;;;;8.48;4.20;;;;;;;25.31;47.90;99266.19;5063230;28;20024;-68
2021/08/01 06:40:31;;;;;;;8.80;3.65;;;;;;;25.33;47.32;99258.91;5063806;28;20021;-68
2021/08/01 06:43:18;;;;;;;10.38;4.03;;;;;;;25.37;46.63;99258.63;5062510;28;20029;-68
2021/08/01 06:46:04;;;;;;;6.43;3.92;;;;;;;25.27;45.64;99248.00;5062197;28;20273;-67
2021/08/01 06:48:50;;;;;;;11.50;4.25;;;;;;;25.43;46.08;99247.50;5062566;28;20066;-67
2021/08/01 06:51:36;;;;;;;6.28;3.63;;;;;;;25.50;47.63;99244.13;5062655;28;20083;-69
2021/08/01 06:54:22;;;;;;;11.98;4.18;;;;;;;25.38;44.72;99245.22;5062485;28;20051;-70
2021/08/01 06:57:07;;;;;;;9.32;3.78;;;;;;;25.55;44.42;99250.81;5061857;28;20032;-69
2021/08/01 06:59:53;;;;;;;8.60;3.95;;;;;;;25.48;44.08;99251.41;5059620;28;20579;-67
2021/08/01 07:02:39;;;;;;;7.10;3.47;;;;;;;25.68;44.00;99259.31;5062276;28;20041;-66
2021/08/01 07:05:27;;;;;;;8.68;3.95;;;;;;;25.67;43.36;99253.19;5062255;28;20094;-66
2021/08/01 07:08:13;;;;;;;7.80;3.85;;;;;;;25.95;44.71;99248.00;5062250;28;20047;-65
2021/08/01 07:10:59;;;;;;;10.88;4.05;;;;;;;26.08;44.07;99246.88;5061833;28;20017;-65
2021/08/01 07:13:45;;;;;;;6.88;3.80;;;;;;;26.27;44.50;99244.16;5062254;28;20371;-67
2021/08/01 07:16:31;;;;;;;9.15;4.25;;;;;;;26.22;43.87;99225.16;5061792;28;20036;-66
2021/08/01 07:19:17;;;;;;;8.95;3.80;;;;;;;26.34;43.07;99225.84;5062267;28;20036;-67
2021/08/01 07:22:03;;;;;;;7.95;4.35;;;;;;;26.40;42.66;99219.94;5061802;28;20066;-67
2021/08/01 07:24:49;;;;;;;8.52;3.92;;;;;;;26.50;43.18;99214.59;5062039;28;20104;-66
2021/08/01 07:27:35;;;;;;;11.50;3.95;;;;;;;26.62;44.45;99229.38;5061686;28;20376;-67
2021/08/01 07:30:21;;;;;;;11.00;4.40;;;;;;;26.67;44.10;99228.91;5063048;28;20134;-65
2021/08/01 07:33:07;;;;;;;9.55;4.63;;;;;;;26.63;44.59;99236.31;5061747;28;20027;-68
2021/08/01 07:35:53;;;;;;;7.88;3.97;;;;;;;26.62;45.15;99233.81;5061685;28;20033;-66
2021/08/01 07:38:39;;;;;;;4.85;4.20;;;;;;;26.51;45.23;99242.84;5061707;28;20051;-68
2021/08/01 07:41:25;;;;;;;9.13;4.05;;;;;;;26.44;44.40;99239.91;5061668;28;20370;-67
2021/08/01 07:44:11;;;;;;;9.75;4.63;;;;;;;26.56;44.48;99239.72;5060384;28;20037;-68
2021/08/01 07:46:56;;;;;;;10.55;4.70;;;;;;;26.45;45.84;99235.44;5062181;28;20259;-67
2021/08/01 07:49:44;;;;;;;15.98;4.75;;;;;;;26.38;45.05;99223.72;5062041;28;20037;-70
2021/08/01 07:52:30;;;;;;;10.48;4.53;;;;;;;26.23;45.22;99232.16;5055382;28;20063;-68
2021/08/01 07:55:16;;;;;;;11.85;4.32;;;;;;;26.35;45.86;99233.66;5054793;28;20036;-67
2021/08/01 07:58:02;;;;;;;7.55;4.28;;;;;;;26.37;45.75;99230.03;5061486;28;20031;-69
2021/08/01 08:00:48;;;;;;;16.42;5.05;;;;;;;26.25;45.40;99232.03;5061264;28;20017;-65
2021/08/01 08:03:34;;;;;;;9.30;4.60;;;;;;;26.18;45.64;99234.41;5060524;28;20036;-66
2021/08/01 08:06:19;;;;;;;9.00;4.45;;;;;;;26.23;46.05;99231.34;5052983;28;20091;-67
2021/08/01 08:09:05;;;;;;;6.93;4.72;;;;;;;26.11;45.62;99228.00;5059389;28;20021;-66
2021/08/01 08:11:51;;;;;;;7.05;4.28;;;;;;;26.17;46.00;99227.44;5060746;28;20087;-67
2021/08/01 08:14:38;;;;;;;8.75;4.47;;;;;;;26.22;47.62;99235.78;5055769;28;20040;-68
2021/08/01 08:17:24;;;;;;;8.95;4.60;;;;;;;26.16;46.05;99231.06;5061262;28;20028;-67
2021/08/01 08:20:10;;;;;;;10.65;4.93;;;;;;;26.16;45.98;99237.22;5061714;28;20036;-67
2021/08/01 08:22:56;;;;;;;8.95;4.82;;;;;;;26.27;46.67;99251.31;5061118;28;20021;-68
2021/08/01 08:25:43;;;;;;;11.13;4.93;;;;;;;26.16;46.35;99253.13;5061578;28;20392;-68
2021/08/01 08:28:28;;;;;;;11.40;4.95;;;;;;;26.05;46.71;99248.00;5061078;28;20025;-68
2021/08/01 08:31:14;;;;;;;13.73;4.63;;;;;;;26.13;46.58;99253.44;5061331;28;20310;-68
2021/08/01 08:34:00;;;;;;;6.68;4.22;;;;;;;26.06;46.31;99254.16;5061106;28;20025;-67
2021/08/01 08:36:47;;;;;;;9.98;4.18;;;;;;;26.08;46.59;99247.72;5061292;28;20091;-68
2021/08/01 08:39:33;;;;;;;10.65;4.65;;;;;;;26.10;47.36;99251.06;5061148;28;20032;-69
2021/08/01 08:42:19;;;;;;;12.45;4.43;;;;;;;26.06;47.25;99248.84;5062550;28;20029;-69
2021/08/01 08:45:05;;;;;;;12.40;4.38;;;;;;;26.11;47.07;99249.25;5065057;28;20061;-69
2021/08/01 08:47:52;;;;;;;7.32;4.60;;;;;;;26.01;46.85;99244.81;5065434;28;20555;-69
2021/08/01 08:50:40;;;;;;;9.18;4.35;;;;;;;26.04;46.64;99243.69;5060973;28;20021;-68
2021/08/01 08:53:27;;;;;;;13.25;5.28;;;;;;;26.11;47.48;99241.28;5065093;28;20282;-65
2021/08/01 08:56:14;;;;;;;13.23;4.32;;;;;;;25.99;47.20;99235.28;5064880;28;20043;-68
2021/08/01 08:59:00;;;;;;;7.10;4.55;;;;;;;26.09;47.35;99235.28;5065101;28;20021;-68
2021/08/01 09:01:46;;;;;;;9.40;4.57;;;;;;;26.15;47.20;99230.25;5065228;28;20029;-70
2021/08/01 09:04:32;;;;;;;8.30;4.32;;;;;;;26.03;46.18;99233.22;5059706;28;20033;-70
2021/08/01 09:07:18;;;;;;;10.50;4.22;;;;;;;26.09;48.22;99236.09;5056937;28;20096;-69
2021/08/01 09:10:05;;;;;;;7.72;4.03;;;;;;;26.08;46.99;99230.94;5063305;28;20028;-69
2021/08/01 09:12:54;;;;;;;6.22;4.15;;;;;;;26.12;47.26;99242.97;5064096;28;20044;-70
2021/08/01 09:15:39;;;;;;;11.30;4.57;;;;;;;26.08;47.00;99236.25;5060789;28;20032;-70
2021/08/01 09:18:32;;;;;;;8.55;4.28;;;;;;;25.89;47.58;99189.34;5063954;28;20021;-69
2021/08/01 09:21:32;;;;;;;8.50;4.28;;;;;;;25.99;45.52;99238.75;5064398;28;20318;-67
2021/08/01 09:24:18;;;;;;;9.55;4.30;;;;;;;26.10;46.52;99239.63;5063965;28;20119;-67
2021/08/01 09:27:05;;;;;;;5.18;4.15;;;;;;;26.11;46.88;99233.31;5064661;28;20057;-67
2021/08/01 09:29:51;;;;;;;7.43;3.75;;;;;;;26.03;46.86;99230.56;5063949;28;20334;-69
2021/08/01 09:32:49;;;;;;;6.80;4.40;;;;;;;25.98;46.92;99225.63;5058949;28;20061;-67
2021/08/01 09:35:35;;;;;;;8.60;3.88;;;;;;;26.01;48.04;99225.41;5064214;28;20032;-65
2021/08/01 09:38:24;;;;;;;8.07;4.07;;;;;;;25.87;46.98;99218.69;5063828;28;20037;-66
2021/08/01 09:41:11;;;;;;;9.60;4.38;;;;;;;25.85;47.08;99231.25;5063879;28;20075;-65
2021/08/01 09:44:00;;;;;;;6.93;4.25;;;;;;;25.61;46.35;99213.13;5063190;28;20067;-64
2021/08/01 09:46:47;;;;;;;4.15;3.70;;;;;;;25.76;46.48;99240.91;5063758;28;20020;-64
2021/08/01 09:49:33;;;;;;;7.85;4.22;;;;;;;25.82;45.97;99258.94;5061978;28;20025;-65
2021/08/01 09:52:23;;;;;;;9.02;4.38;;;;;;;25.85;45.93;99268.38;5064401;28;20326;-65
2021/08/01 09:55:20;;;;;;;6.18;3.95;;;;;;;25.85;45.72;99260.44;5058275;28;20289;-64
2021/08/01 09:58:05;;;;;;;12.68;4.47;;;;;;;25.85;46.34;99271.03;5063351;28;20226;-64
2021/08/01 10:00:59;;;;;;;5.97;3.88;;;;;;;25.93;46.94;99276.50;5063523;28;20259;-64
2021/08/01 10:03:49;;;;;;;12.52;4.47;;;;;;;25.91;47.11;99277.59;5059581;28;20087;-63
2021/08/01 10:06:35;;;;;;;9.10;4.35;;;;;;;25.91;47.44;99282.91;5063935;28;20088;-64
2021/08/01 10:09:26;;;;;;;9.02;4.10;;;;;;;25.82;48.67;99290.75;5063213;28;20036;-62
2021/08/01 10:12:13;;;;;;;10.70;5.00;;;;;;;25.79;47.01;99292.84;5063560;28;20958;-63
2021/08/01 10:15:01;;;;;;;7.30;4.55;;;;;;;25.39;47.22;99251.41;5062958;28;20384;-63
2021/08/01 10:17:47;;;;;;;7.25;4.63;;;;;;;25.69;47.71;99289.38;5062394;28;20222;-64
2021/08/01 10:20:36;;;;;;;7.70;4.10;;;;;;;25.66;47.64;99290.47;5064390;28;20032;-65
2021/08/01 10:23:24;;;;;;;6.40;4.30;;;;;;;25.41;47.92;99238.81;5063637;28;20040;-64
2021/08/01 10:26:12;;;;;;;6.13;4.15;;;;;;;25.74;48.51;99287.09;5062042;28;20028;-65
2021/08/01 10:29:01;;;;;;;8.93;5.10;;;;;;;25.61;49.00;99279.44;5063006;28;20025;-63
2021/08/01 10:31:53;;;;;;;10.30;5.30;;;;;;;25.57;49.75;99283.34;5063016;28;20025;-64
2021/08/01 10:35:02;;;;;;;7.65;4.63;;;;;;;25.26;50.27;99228.59;5062906;28;20017;-64
2021/08/01 10:37:54;;;;;;;5.93;5.32;;;;;;;25.46;51.36;99285.16;5063178;28;20647;-64
2021/08/01 10:40:41;;;;;;;7.43;5.15;;;;;;;25.53;51.98;99285.44;5050590;28;20079;-65
2021/08/01 10:43:30;;;;;;;9.77;5.90;;;;;;;25.32;52.98;99248.44;5057138;28;20237;-65
2021/08/01 10:46:19;;;;;;;8.55;5.35;;;;;;;25.52;53.31;99282.94;5062810;28;20025;-64
2021/08/01 10:49:07;;;;;;;7.93;5.80;;;;;;;25.28;53.49;99239.91;5059295;28;20025;-64
2021/08/01 10:51:53;;;;;;;6.97;6.13;;;;;;;25.35;52.93;99266.72;5062356;28;20029;-64
2021/08/01 10:54:53;;;;;;;6.60;5.32;;;;;;;25.44;54.51;99246.50;5062626;28;20024;-65
2021/08/01 10:57:39;;;;;;;7.57;5.80;;;;;;;25.41;54.20;99252.94;5062727;28;20053;-65
2021/08/01 11:00:50;;;;;;;7.75;5.40;;;;;;;24.98;55.38;99196.66;5056290;28;20082;-65
2021/08/01 11:03:39;;;;;;;7.82;5.32;;;;;;;25.26;55.69;99235.72;5061962;28;20108;-64
2021/08/01 11:06:34;;;;;;;8.10;5.75;;;;;;;25.11;55.72;99217.59;5062576;28;20222;-65
2021/08/01 11:09:20;;;;;;;8.68;5.95;;;;;;;24.98;57.46;99201.94;5062001;28;20070;-64
2021/08/01 11:12:18;;;;;;;9.55;6.10;;;;;;;24.73;57.83;99198.00;5062033;28;20045;-66
2021/08/01 11:15:06;;;;;;;7.93;6.50;;;;;;;24.83;57.67;99182.13;5062725;28;20029;-66
2021/08/01 11:18:01;;;;;;;7.70;6.47;;;;;;;24.76;59.30;99181.81;5061405;28;20043;-66
2021/08/01 11:20:48;;;;;;;8.68;6.75;;;;;;;24.76;58.58;99205.66;5058820;28;20365;-66
2021/08/01 11:23:46;;;;;;;11.45;7.75;;;;;;;24.49;62.76;99166.53;5062009;28;20032;-66
2021/08/01 11:26:32;;;;;;;9.82;7.80;;;;;;;24.22;63.04;99152.09;5056103;28;20025;-65
2021/08/01 11:29:18;;;;;;;9.32;6.90;;;;;;;24.27;63.34;99164.91;5056455;28;20037;-65
2021/08/01 11:32:09;;;;;;;10.50;6.93;;;;;;;24.12;67.26;99173.22;5061458;28;20036;-64
2021/08/01 11:35:17;;;;;;;11.52;7.65;;;;;;;24.11;69.31;99190.09;5061722;28;20036;-65
2021/08/01 11:38:08;;;;;;;8.38;7.57;;;;;;;23.99;68.19;99198.25;5061987;28;20096;-66
2021/08/01 11:40:54;;;;;;;10.38;8.00;;;;;;;23.97;67.59;99189.59;5062362;28;20025;-69
2021/08/01 11:44:17;;;;;;;9.13;7.65;;;;;;;23.60;68.80;99153.84;5061899;28;20028;-68
2021/08/01 11:47:08;;;;;;;13.80;8.32;;;;;;;23.75;70.13;99210.72;5061573;28;20214;-66
2021/08/01 11:49:54;;;;;;;9.60;7.60;;;;;;;23.79;69.81;99203.38;5059541;28;20103;-64
2021/08/01 11:52:45;;;;;;;10.45;8.13;;;;;;;23.53;67.74;99156.19;5061795;28;20056;-65
2021/08/01 11:55:31;;;;;;;11.15;7.95;;;;;;;23.74;67.89;99210.84;5061613;28;20020;-64
2021/08/01 11:58:18;;;;;;;11.00;8.88;;;;;;;23.63;68.40;99209.13;5055612;28;20337;-65
2021/08/01 12:01:05;;;;;;;10.45;8.75;;;;;;;23.72;69.24;99208.34;5048753;28;20041;-64
2021/08/01 12:03:51;;;;;;;11.93;9.13;;;;;;;23.68;69.02;99190.22;5051533;28;20022;-66
2021/08/01 12:06:42;;;;;;;9.57;8.57;;;;;;;23.47;70.05;99156.69;5056643;28;20089;-66
2021/08/01 12:09:30;;;;;;;15.75;9.38;;;;;;;23.56;70.47;99158.56;5052244;28;20230;-64
2021/08/01 12:12:26;;;;;;;9.45;8.50;;;;;;;23.55;68.93;99159.53;5057550;28;20053;-63
2021/08/01 12:15:12;;;;;;;11.18;8.55;;;;;;;23.92;67.77;99209.31;5050073;28;20238;-66
2021/08/01 12:17:58;;;;;;;12.77;8.88;;;;;;;23.88;68.05;99215.84;5061384;28;20020;-65
2021/08/01 12:20:44;;;;;;;12.23;8.57;;;;;;;23.99;69.27;99212.28;5061422;28;20028;-65
2021/08/01 12:23:37;;;;;;;15.98;9.05;;;;;;;23.78;68.75;99165.50;5065416;28;20033;-64
2021/08/01 12:26:39;;;;;;;14.38;9.02;;;;;;;24.07;69.24;99207.19;5056339;28;20036;-64
2021/08/01 12:29:38;;;;;;;9.43;8.38;;;;;;;24.11;67.81;99210.41;5056210;28;20222;-65
2021/08/01 12:32:29;;;;;;;11.80;8.52;;;;;;;23.66;68.10;99166.56;5053324;28;20032;-64
2021/08/01 12:35:24;;;;;;;11.57;8.95;;;;;;;23.79;67.57;99174.28;5063546;28;20245;-65
2021/08/01 12:38:12;;;;;;;10.32;8.48;;;;;;;23.95;68.21;99213.53;5053555;28;20132;-64
2021/08/01 12:41:12;;;;;;;10.75;8.57;;;;;;;23.62;67.91;99157.19;5065914;28;20340;-65
2021/08/01 12:44:11;;;;;;;10.85;9.27;;;;;;;23.80;68.44;99199.78;5063729;28;20038;-65
2021/08/01 12:47:07;;;;;;;11.02;8.43;;;;;;;23.88;67.73;99185.91;5065466;28;20021;-64
2021/08/01 12:49:55;;;;;;;10.13;7.72;;;;;;;23.72;67.25;99141.41;5057598;28;20111;-64
2021/08/01 12:52:41;;;;;;;8.50;7.60;;;;;;;24.08;66.94;99179.75;5064937;28;20021;-65
2021/08/01 12:55:28;;;;;;;14.65;8.23;;;;;;;24.19;66.49;99186.78;5064866;28;20029;-65
2021/08/01 12:58:14;;;;;;;13.32;7.80;;;;;;;24.26;67.21;99179.16;5064902;28;20334;-64
2021/08/01 13:01:03;;;;;;;9.07;7.90;;;;;;;24.33;66.72;99190.88;5065776;28;20032;-64
2021/08/01 13:03:56;;;;;;;11.40;8.02;;;;;;;24.12;68.04;99148.59;5064012;28;20096;-65
2021/08/01 13:06:42;;;;;;;10.98;8.90;;;;;;;24.33;67.54;99187.38;5057807;28;20248;-65
2021/08/01 13:09:28;;;;;;;8.73;7.57;;;;;;;24.28;67.72;99183.34;5063826;28;20100;-66